createdAt,value
2023-03-02T00:03:04.764Z,59.93
2023-03-02T00:08:10.134Z,59.98
2023-03-02T00:13:14.178Z,60.04
2023-03-02T00:18:17.502Z,60.19
2023-03-02T00:23:20.767Z,60.15
2023-03-02T00:28:24.103Z,60.42
2023-03-02T00:33:27.291Z,60.29
2023-03-02T00:38:30.487Z,60.43
2023-03-02T00:43:33.703Z,60.28
2023-03-02T00:48:37.093Z,60.27
2023-03-02T00:53:41.255Z,60.21
2023-03-02T00:58:45.347Z,60.30
2023-03-02T01:03:48.820Z,60.37
2023-03-02T01:08:53.007Z,60.47
2023-03-02T01:13:56.339Z,60.41
2023-03-02T01:18:59.592Z,60.47
2023-03-02T01:24:02.986Z,60.51
2023-03-02T01:29:06.926Z,60.42
2023-03-02T01:34:10.163Z,60.67
2023-03-02T01:39:17.256Z,60.57
2023-03-02T01:44:41.581Z,60.73
2023-03-02T01:49:50.051Z,60.68
2023-03-02T01:54:56.669Z,60.76
2023-03-02T02:00:09.057Z,60.54
2023-03-02T02:05:23.260Z,60.67
2023-03-02T02:10:27.716Z,60.63
2023-03-02T02:15:31.053Z,60.67
2023-03-02T02:20:41.317Z,60.69
2023-03-02T02:26:13.903Z,60.74
2023-03-02T02:31:26.963Z,60.94
2023-03-02T02:36:35.435Z,60.82
2023-03-02T02:41:43.905Z,60.78
2023-03-02T02:46:46.960Z,60.90
2023-03-02T02:51:50.180Z,60.98
2023-03-02T02:56:54.529Z,61.05
2023-03-02T03:01:58.913Z,61.13
2023-03-02T03:07:06.159Z,61.03
2023-03-02T03:12:24.386Z,61.27
2023-03-02T03:17:29.137Z,61.47
2023-03-02T03:22:38.433Z,61.50
2023-03-02T03:27:43.290Z,61.43
2023-03-02T03:32:46.730Z,61.44
2023-03-02T03:37:52.450Z,61.28
2023-03-02T03:42:56.012Z,61.47
2023-03-02T03:47:59.616Z,61.65
2023-03-02T03:53:04.017Z,61.67
2023-03-02T03:58:07.839Z,61.74
2023-03-02T04:03:11.469Z,61.75
2023-03-02T04:08:14.819Z,61.81
2023-03-02T04:13:18.174Z,61.91
2023-03-02T04:18:21.550Z,62.01
2023-03-02T04:23:24.888Z,61.91
2023-03-02T04:28:28.209Z,61.77
2023-03-02T04:33:32.176Z,61.99
2023-03-02T04:38:35.453Z,61.95
2023-03-02T04:43:38.943Z,62.05
2023-03-02T04:48:42.184Z,62.02
2023-03-02T04:53:45.384Z,62.26
2023-03-02T04:58:49.574Z,62.28
2023-03-02T05:03:53.383Z,62.20
2023-03-02T05:08:59.938Z,62.24
2023-03-02T05:14:06.469Z,61.96
2023-03-02T05:19:12.290Z,61.97
2023-03-02T05:24:15.734Z,62.00
2023-03-02T05:29:19.000Z,61.99
2023-03-02T05:34:22.288Z,62.12
2023-03-02T05:39:25.540Z,62.19
2023-03-02T05:44:28.659Z,62.49
2023-03-02T05:49:33.151Z,62.27
2023-03-02T05:54:36.854Z,61.94
2023-03-02T05:59:40.168Z,61.98
2023-03-02T06:04:44.728Z,61.98
2023-03-02T06:09:48.560Z,61.67
2023-03-02T06:14:53.614Z,61.99
2023-03-02T06:20:11.431Z,62.13
2023-03-02T06:25:18.822Z,62.09
2023-03-02T06:30:24.500Z,62.02
2023-03-02T06:36:03.630Z,64.28
2023-03-02T06:41:07.455Z,61.59
2023-03-02T06:46:11.050Z,60.56
2023-03-02T06:51:14.306Z,60.55
2023-03-02T06:56:17.795Z,60.54
2023-03-02T07:01:21.257Z,60.61
2023-03-02T07:06:24.457Z,60.30
2023-03-02T07:11:27.663Z,60.03
2023-03-02T07:16:31.439Z,59.31
2023-03-02T07:21:34.963Z,59.80
2023-03-02T07:26:38.375Z,59.37
2023-03-02T07:31:44.385Z,59.26
2023-03-02T07:36:48.129Z,59.18
2023-03-02T07:41:51.244Z,58.53
2023-03-02T07:46:57.235Z,58.50
2023-03-02T07:52:00.466Z,57.99
2023-03-02T07:57:04.027Z,57.84
2023-03-02T08:02:07.605Z,57.36
2023-03-02T08:07:10.880Z,57.80
2023-03-02T08:12:14.484Z,57.09
2023-03-02T08:17:17.797Z,56.65
2023-03-02T08:22:21.606Z,56.27
2023-03-02T08:27:24.865Z,56.08
2023-03-02T08:32:28.181Z,55.84
2023-03-02T08:37:31.820Z,54.77
2023-03-02T08:42:35.106Z,54.12
2023-03-02T08:47:38.589Z,53.56
2023-03-02T08:52:41.828Z,53.90
2023-03-02T08:57:45.951Z,53.79
2023-03-02T09:02:49.212Z,53.21
2023-03-02T09:07:52.523Z,52.90
2023-03-02T09:12:55.673Z,52.04
2023-03-02T09:17:58.918Z,51.92
2023-03-02T09:23:02.139Z,51.66
2023-03-02T09:28:05.676Z,51.96
2023-03-02T09:33:09.228Z,54.08
2023-03-02T09:38:16.344Z,50.33
2023-03-02T09:43:45.625Z,49.43
2023-03-02T09:49:10.662Z,48.56
2023-03-02T09:54:19.607Z,48.29
2023-03-02T09:59:27.102Z,48.11
2023-03-02T10:04:39.101Z,47.21
2023-03-02T10:09:43.626Z,46.86
2023-03-02T10:14:57.515Z,46.11
2023-03-02T10:20:06.051Z,45.35
2023-03-02T10:25:31.581Z,45.13
2023-03-02T10:30:37.478Z,42.92
2023-03-02T10:35:50.195Z,42.08
2023-03-02T10:41:06.874Z,41.44
2023-03-02T10:46:12.654Z,41.13
2023-03-02T10:51:27.414Z,40.94
2023-03-02T10:56:32.394Z,40.68
2023-03-02T11:01:36.125Z,39.90
2023-03-02T11:06:39.546Z,39.82
2023-03-02T11:11:52.104Z,39.17
2023-03-02T11:16:56.912Z,38.51
2023-03-02T11:22:54.232Z,38.43
2023-03-02T11:28:05.832Z,37.85
2023-03-02T11:33:18.444Z,37.37
2023-03-02T11:38:41.747Z,38.58
2023-03-02T11:43:44.945Z,36.26
2023-03-02T11:48:53.046Z,35.57
2023-03-02T11:54:19.530Z,35.15
2023-03-02T11:59:26.528Z,35.32
2023-03-02T12:04:38.799Z,35.28
2023-03-02T12:09:43.038Z,35.32
2023-03-02T12:14:46.470Z,35.43
2023-03-02T12:19:55.919Z,35.03
2023-03-02T12:25:19.321Z,34.65
2023-03-02T12:30:28.149Z,34.82
2023-03-02T12:35:34.309Z,35.31
2023-03-02T12:40:57.679Z,35.88
2023-03-02T12:46:32.632Z,36.06
2023-03-02T12:52:22.173Z,36.07
2023-03-02T12:57:28.003Z,36.41
2023-03-02T13:02:36.419Z,36.16
2023-03-02T13:07:50.656Z,36.45
2023-03-02T13:12:54.127Z,36.04
2023-03-02T13:18:00.220Z,36.26
2023-03-02T13:23:03.948Z,35.50
2023-03-02T13:28:34.827Z,35.70
2023-03-02T13:33:44.924Z,35.15
2023-03-02T13:38:52.649Z,34.65
2023-03-02T13:43:57.279Z,34.65
2023-03-02T13:49:11.006Z,34.77
2023-03-02T13:54:17.400Z,34.80
2023-03-02T13:59:22.100Z,35.51
2023-03-02T14:04:25.624Z,36.44
2023-03-02T14:09:29.286Z,36.02
2023-03-02T14:14:38.038Z,36.11
2023-03-02T14:19:41.599Z,36.40
2023-03-02T14:24:46.371Z,37.18
2023-03-02T14:29:49.684Z,38.02
2023-03-02T14:34:53.087Z,38.45
2023-03-02T14:39:57.100Z,39.62
2023-03-02T14:45:00.511Z,39.74
2023-03-02T14:50:05.626Z,39.89
2023-03-02T14:55:32.781Z,39.84
2023-03-02T15:00:36.703Z,40.21
2023-03-02T15:05:42.167Z,40.45
2023-03-02T15:10:51.111Z,40.94
2023-03-02T15:15:54.712Z,41.24
2023-03-02T15:20:58.116Z,41.22
2023-03-02T15:26:04.826Z,41.69
2023-03-02T15:31:14.462Z,41.84
2023-03-02T15:36:18.159Z,41.92
2023-03-02T15:41:21.603Z,42.06
2023-03-02T15:46:25.420Z,42.50
2023-03-02T15:51:28.711Z,43.00
2023-03-02T15:56:42.306Z,42.93
2023-03-02T16:01:46.057Z,43.27
2023-03-02T16:06:49.410Z,43.42
2023-03-02T16:11:53.098Z,43.77
2023-03-02T16:16:56.732Z,43.97
2023-03-02T16:22:00.168Z,44.30
2023-03-02T16:27:05.212Z,44.59
2023-03-02T16:32:09.229Z,44.98
2023-03-02T16:37:12.570Z,45.15
2023-03-02T16:42:16.751Z,45.43
2023-03-02T16:47:20.237Z,45.71
2023-03-02T16:52:24.291Z,45.87
2023-03-02T16:57:27.765Z,46.23
2023-03-02T17:02:31.169Z,46.63
2023-03-02T17:07:34.980Z,46.96
2023-03-02T17:12:38.480Z,46.97
2023-03-02T17:17:42.982Z,47.11
2023-03-02T17:22:47.044Z,47.40
2023-03-02T17:27:50.313Z,47.59
2023-03-02T17:32:53.769Z,47.81
2023-03-02T17:37:57.208Z,48.03
2023-03-02T17:43:00.788Z,48.31
2023-03-02T17:48:05.058Z,48.80
2023-03-02T17:53:08.659Z,49.62
2023-03-02T17:58:12.166Z,49.81
2023-03-02T18:03:15.605Z,49.96
2023-03-02T18:08:18.790Z,50.47
2023-03-02T18:13:22.278Z,50.68
2023-03-02T18:18:25.539Z,51.15
2023-03-02T18:23:29.325Z,51.86
2023-03-02T18:28:32.654Z,52.18
2023-03-02T18:33:35.725Z,52.80
2023-03-02T18:38:38.847Z,53.30
2023-03-02T18:43:43.596Z,53.58
2023-03-02T18:48:50.319Z,53.88
2023-03-02T18:53:54.784Z,54.57
2023-03-02T18:58:57.982Z,54.98
2023-03-02T19:04:02.622Z,55.49
2023-03-02T19:09:06.480Z,55.91
2023-03-02T19:14:10.387Z,56.05
2023-03-02T19:19:14.176Z,57.15
2023-03-02T19:24:17.499Z,57.08
2023-03-02T19:29:22.306Z,56.25
2023-03-02T19:34:25.422Z,56.40
2023-03-02T19:39:28.654Z,56.67
2023-03-02T19:44:33.761Z,56.84
2023-03-02T19:49:37.914Z,56.88
2023-03-02T19:54:43.689Z,56.83
2023-03-02T19:59:46.967Z,57.02
2023-03-02T20:04:51.421Z,57.50
2023-03-02T20:09:54.808Z,57.37
2023-03-02T20:14:58.330Z,57.75
2023-03-02T20:20:03.961Z,57.51
2023-03-02T20:25:09.121Z,58.04
2023-03-02T20:30:22.599Z,58.15
2023-03-02T20:35:29.956Z,58.34
2023-03-02T20:40:34.364Z,58.02
2023-03-02T20:45:37.838Z,58.31
2023-03-02T20:50:42.660Z,58.69
2023-03-02T20:55:46.289Z,58.97
2023-03-02T21:00:49.605Z,59.00
2023-03-02T21:05:52.856Z,59.53
2023-03-02T21:10:56.661Z,59.60
2023-03-02T21:16:00.402Z,59.82
2023-03-02T21:21:04.227Z,59.85
2023-03-02T21:26:11.882Z,59.77
2023-03-02T21:31:18.486Z,59.70
2023-03-02T21:36:24.614Z,59.72
2023-03-02T21:41:28.298Z,59.94
2023-03-02T21:46:34.949Z,60.14
2023-03-02T21:51:38.509Z,60.07
2023-03-02T21:56:43.303Z,60.12
2023-03-02T22:01:46.728Z,60.08
2023-03-02T22:06:49.981Z,60.36
2023-03-02T22:11:53.323Z,60.17
2023-03-02T22:16:58.592Z,60.54
2023-03-02T22:22:03.602Z,60.57
2023-03-02T22:27:22.030Z,60.67
2023-03-02T22:32:30.750Z,60.70
2023-03-02T22:37:34.974Z,60.70
2023-03-02T22:42:38.319Z,61.14
2023-03-02T22:47:48.468Z,61.18
2023-03-02T22:52:53.699Z,60.97
2023-03-02T22:57:57.021Z,61.15
2023-03-02T23:03:00.339Z,61.68
2023-03-02T23:08:23.654Z,61.86
2023-03-02T23:13:40.069Z,61.74
2023-03-02T23:18:44.290Z,61.45
2023-03-02T23:23:49.401Z,61.87
2023-03-02T23:28:52.608Z,61.82
2023-03-02T23:33:55.830Z,61.59
2023-03-02T23:38:59.549Z,61.79
2023-03-02T23:44:03.593Z,62.05
2023-03-02T23:49:07.037Z,61.89
2023-03-02T23:54:10.464Z,61.63
2023-03-02T23:59:13.940Z,61.65
